sensor_id;sensor_type;location;lat;lon;timestamp;temperature;humidity
14401;DHT22;7285;50.894;5.462;2023-02-20T00:02:22;3.40;1.00
14401;DHT22;7285;50.894;5.462;2023-02-20T00:04:49;3.50;1.00
14401;DHT22;7285;50.894;5.462;2023-02-20T00:07:16;3.40;1.00
14401;DHT22;7285;50.894;5.462;2023-02-20T00:09:43;3.40;1.00
14401;DHT22;7285;50.894;5.462;2023-02-20T00:12:11;3.50;1.00
14401;DHT22;7285;50.894;5.462;2023-02-20T00:14:38;3.70;1.00
14401;DHT22;7285;50.894;5.462;2023-02-20T00:17:05;3.80;1.00
14401;DHT22;7285;50.894;5.462;2023-02-20T00:19:32;3.90;1.00
14401;DHT22;7285;50.894;5.462;2023-02-20T00:21:59;4.10;4.70
14401;DHT22;7285;50.894;5.462;2023-02-20T00:24:25;3.90;1.00
14401;DHT22;7285;50.894;5.462;2023-02-20T00:26:53;4.00;10.70
14401;DHT22;7285;50.894;5.462;2023-02-20T00:29:23;4.20;32.80
14401;DHT22;7285;50.894;5.462;2023-02-20T00:31:51;4.10;25.00
14401;DHT22;7285;50.894;5.462;2023-02-20T00:34:18;4.20;33.20
14401;DHT22;7285;50.894;5.462;2023-02-20T00:36:45;4.40;50.60
14401;DHT22;7285;50.894;5.462;2023-02-20T00:39:12;4.40;61.60
14401;DHT22;7285;50.894;5.462;2023-02-20T00:41:39;4.40;82.00
14401;DHT22;7285;50.894;5.462;2023-02-20T00:44:06;4.50;63.60
14401;DHT22;7285;50.894;5.462;2023-02-20T00:46:35;4.50;49.80
14401;DHT22;7285;50.894;5.462;2023-02-20T00:49:02;4.50;37.60
14401;DHT22;7285;50.894;5.462;2023-02-20T00:51:29;4.50;30.30
14401;DHT22;7285;50.894;5.462;2023-02-20T00:53:58;4.30;10.40
14401;DHT22;7285;50.894;5.462;2023-02-20T00:56:25;4.40;12.70
14401;DHT22;7285;50.894;5.462;2023-02-20T00:58:52;4.40;12.90
14401;DHT22;7285;50.894;5.462;2023-02-20T01:01:19;4.30;1.00
14401;DHT22;7285;50.894;5.462;2023-02-20T01:03:48;4.40;12.30
14401;DHT22;7285;50.894;5.462;2023-02-20T01:06:15;4.50;9.50
14401;DHT22;7285;50.894;5.462;2023-02-20T01:08:42;4.60;13.70
14401;DHT22;7285;50.894;5.462;2023-02-20T01:11:09;4.50;1.00
14401;DHT22;7285;50.894;5.462;2023-02-20T01:13:37;4.50;1.00
14401;DHT22;7285;50.894;5.462;2023-02-20T01:16:04;4.50;1.00
14401;DHT22;7285;50.894;5.462;2023-02-20T01:18:31;4.50;1.00
14401;DHT22;7285;50.894;5.462;2023-02-20T01:20:59;4.60;1.00
14401;DHT22;7285;50.894;5.462;2023-02-20T01:23:26;4.60;1.00
14401;DHT22;7285;50.894;5.462;2023-02-20T01:25:53;4.50;1.00
14401;DHT22;7285;50.894;5.462;2023-02-20T01:28:20;4.70;1.00
14401;DHT22;7285;50.894;5.462;2023-02-20T01:30:47;4.70;1.00
14401;DHT22;7285;50.894;5.462;2023-02-20T01:33:14;4.70;1.00
14401;DHT22;7285;50.894;5.462;2023-02-20T01:35:41;4.70;1.00
14401;DHT22;7285;50.894;5.462;2023-02-20T01:38:09;4.70;1.00
14401;DHT22;7285;50.894;5.462;2023-02-20T01:40:36;4.70;1.00
14401;DHT22;7285;50.894;5.462;2023-02-20T01:43:03;4.80;1.00
14401;DHT22;7285;50.894;5.462;2023-02-20T01:45:35;4.70;1.00
14401;DHT22;7285;50.894;5.462;2023-02-20T01:48:04;4.80;1.00
14401;DHT22;7285;50.894;5.462;2023-02-20T01:50:36;4.70;1.00
14401;DHT22;7285;50.894;5.462;2023-02-20T01:53:05;4.70;1.00
14401;DHT22;7285;50.894;5.462;2023-02-20T01:55:38;4.80;1.00
14401;DHT22;7285;50.894;5.462;2023-02-20T01:58:08;4.70;1.00
14401;DHT22;7285;50.894;5.462;2023-02-20T02:00:36;4.60;1.00
14401;DHT22;7285;50.894;5.462;2023-02-20T02:03:05;4.50;1.00
14401;DHT22;7285;50.894;5.462;2023-02-20T02:05:33;4.50;1.00
14401;DHT22;7285;50.894;5.462;2023-02-20T02:08:03;4.60;1.00
14401;DHT22;7285;50.894;5.462;2023-02-20T02:10:52;4.60;1.00
14401;DHT22;7285;50.894;5.462;2023-02-20T02:13:20;4.50;1.00
14401;DHT22;7285;50.894;5.462;2023-02-20T02:15:50;4.50;1.00
14401;DHT22;7285;50.894;5.462;2023-02-20T02:18:29;4.40;1.00
14401;DHT22;7285;50.894;5.462;2023-02-20T02:27:21;4.30;1.00
14401;DHT22;7285;50.894;5.462;2023-02-20T02:33:05;4.10;1.00
14401;DHT22;7285;50.894;5.462;2023-02-20T02:36:03;4.10;1.00
14401;DHT22;7285;50.894;5.462;2023-02-20T02:38:44;3.90;1.00
14401;DHT22;7285;50.894;5.462;2023-02-20T02:41:19;3.90;1.00
14401;DHT22;7285;50.894;5.462;2023-02-20T02:43:53;3.80;1.00
14401;DHT22;7285;50.894;5.462;2023-02-20T02:46:28;3.80;1.00
14401;DHT22;7285;50.894;5.462;2023-02-20T02:48:59;3.80;1.00
14401;DHT22;7285;50.894;5.462;2023-02-20T02:51:35;3.60;1.00
14401;DHT22;7285;50.894;5.462;2023-02-20T02:54:10;3.50;1.00
14401;DHT22;7285;50.894;5.462;2023-02-20T02:56:39;3.40;1.00
14401;DHT22;7285;50.894;5.462;2023-02-20T02:59:09;3.30;1.00
14401;DHT22;7285;50.894;5.462;2023-02-20T03:01:47;3.20;1.00
14401;DHT22;7285;50.894;5.462;2023-02-20T03:04:16;3.20;1.00
14401;DHT22;7285;50.894;5.462;2023-02-20T03:06:51;3.30;1.00
14401;DHT22;7285;50.894;5.462;2023-02-20T03:09:23;3.30;1.00
14401;DHT22;7285;50.894;5.462;2023-02-20T03:11:53;3.40;1.00
14401;DHT22;7285;50.894;5.462;2023-02-20T03:14:25;3.20;1.00
14401;DHT22;7285;50.894;5.462;2023-02-20T03:17:16;3.30;1.00
14401;DHT22;7285;50.894;5.462;2023-02-20T03:19:50;3.50;1.00
14401;DHT22;7285;50.894;5.462;2023-02-20T03:22:20;3.60;1.00
14401;DHT22;7285;50.894;5.462;2023-02-20T03:24:53;3.80;1.00
14401;DHT22;7285;50.894;5.462;2023-02-20T03:27:30;3.90;1.00
14401;DHT22;7285;50.894;5.462;2023-02-20T03:30:05;3.90;1.00
14401;DHT22;7285;50.894;5.462;2023-02-20T03:32:33;4.10;1.00
14401;DHT22;7285;50.894;5.462;2023-02-20T03:35:19;4.20;8.90
14401;DHT22;7285;50.894;5.462;2023-02-20T03:38:08;4.20;19.80
14401;DHT22;7285;50.894;5.462;2023-02-20T03:40:55;4.30;40.30
14401;DHT22;7285;50.894;5.462;2023-02-20T03:43:42;4.30;28.40
14401;DHT22;7285;50.894;5.462;2023-02-20T03:46:12;4.50;60.50
14401;DHT22;7285;50.894;5.462;2023-02-20T03:48:42;4.60;52.30
14401;DHT22;7285;50.894;5.462;2023-02-20T03:51:11;4.60;41.70
14401;DHT22;7285;50.894;5.462;2023-02-20T03:53:40;4.50;41.10
14401;DHT22;7285;50.894;5.462;2023-02-20T03:56:09;4.60;55.10
14401;DHT22;7285;50.894;5.462;2023-02-20T03:58:40;4.70;37.80
14401;DHT22;7285;50.894;5.462;2023-02-20T04:01:09;4.80;16.10
14401;DHT22;7285;50.894;5.462;2023-02-20T04:03:41;4.70;12.70
14401;DHT22;7285;50.894;5.462;2023-02-20T04:06:11;4.90;13.00
14401;DHT22;7285;50.894;5.462;2023-02-20T04:08:43;4.90;9.90
14401;DHT22;7285;50.894;5.462;2023-02-20T04:11:13;5.00;1.00
14401;DHT22;7285;50.894;5.462;2023-02-20T04:13:43;5.00;1.00
14401;DHT22;7285;50.894;5.462;2023-02-20T04:16:10;5.00;1.00
14401;DHT22;7285;50.894;5.462;2023-02-20T04:18:38;5.00;1.00
14401;DHT22;7285;50.894;5.462;2023-02-20T04:21:09;5.00;1.00
14401;DHT22;7285;50.894;5.462;2023-02-20T04:23:42;5.10;1.00
14401;DHT22;7285;50.894;5.462;2023-02-20T04:26:13;5.10;1.00
14401;DHT22;7285;50.894;5.462;2023-02-20T04:28:42;5.10;1.00
14401;DHT22;7285;50.894;5.462;2023-02-20T04:31:10;5.10;1.00
14401;DHT22;7285;50.894;5.462;2023-02-20T04:33:37;5.10;1.00
14401;DHT22;7285;50.894;5.462;2023-02-20T04:36:05;5.10;1.00
14401;DHT22;7285;50.894;5.462;2023-02-20T04:38:32;5.10;1.00
14401;DHT22;7285;50.894;5.462;2023-02-20T04:41:00;5.00;1.00
14401;DHT22;7285;50.894;5.462;2023-02-20T04:43:27;5.00;1.00
14401;DHT22;7285;50.894;5.462;2023-02-20T04:45:54;5.00;1.00
14401;DHT22;7285;50.894;5.462;2023-02-20T04:48:21;5.10;1.00
14401;DHT22;7285;50.894;5.462;2023-02-20T04:50:48;5.10;1.00
14401;DHT22;7285;50.894;5.462;2023-02-20T04:53:15;5.10;1.00
14401;DHT22;7285;50.894;5.462;2023-02-20T04:55:42;5.10;1.00
14401;DHT22;7285;50.894;5.462;2023-02-20T04:58:10;5.10;1.00
14401;DHT22;7285;50.894;5.462;2023-02-20T05:00:37;5.20;1.00
14401;DHT22;7285;50.894;5.462;2023-02-20T05:03:04;5.20;1.00
14401;DHT22;7285;50.894;5.462;2023-02-20T05:05:31;5.20;1.00
14401;DHT22;7285;50.894;5.462;2023-02-20T05:08:00;5.30;1.00
14401;DHT22;7285;50.894;5.462;2023-02-20T05:10:28;5.30;1.00
14401;DHT22;7285;50.894;5.462;2023-02-20T05:12:55;5.20;99.90
14401;DHT22;7285;50.894;5.462;2023-02-20T05:15:25;5.30;99.90
14401;DHT22;7285;50.894;5.462;2023-02-20T05:17:52;5.30;99.90
14401;DHT22;7285;50.894;5.462;2023-02-20T05:20:19;5.30;99.90
14401;DHT22;7285;50.894;5.462;2023-02-20T05:23:07;5.30;99.90
14401;DHT22;7285;50.894;5.462;2023-02-20T05:25:32;5.30;76.50
14401;DHT22;7285;50.894;5.462;2023-02-20T05:27:59;5.30;17.20
14401;DHT22;7285;50.894;5.462;2023-02-20T05:30:28;5.30;1.00
14401;DHT22;7285;50.894;5.462;2023-02-20T05:32:55;5.30;1.00
14401;DHT22;7285;50.894;5.462;2023-02-20T05:35:22;5.40;1.00
14401;DHT22;7285;50.894;5.462;2023-02-20T05:37:48;5.40;1.00
14401;DHT22;7285;50.894;5.462;2023-02-20T05:40:16;5.40;1.00
14401;DHT22;7285;50.894;5.462;2023-02-20T05:42:43;5.40;1.00
14401;DHT22;7285;50.894;5.462;2023-02-20T05:45:10;5.40;99.90
14401;DHT22;7285;50.894;5.462;2023-02-20T05:47:38;5.40;99.90
14401;DHT22;7285;50.894;5.462;2023-02-20T05:50:05;5.40;99.90
14401;DHT22;7285;50.894;5.462;2023-02-20T05:52:32;5.40;99.90
14401;DHT22;7285;50.894;5.462;2023-02-20T05:54:59;5.40;83.20
14401;DHT22;7285;50.894;5.462;2023-02-20T05:57:26;5.50;1.00
14401;DHT22;7285;50.894;5.462;2023-02-20T05:59:54;5.50;1.00
14401;DHT22;7285;50.894;5.462;2023-02-20T06:02:21;5.50;1.00
14401;DHT22;7285;50.894;5.462;2023-02-20T06:04:49;5.50;1.00
14401;DHT22;7285;50.894;5.462;2023-02-20T06:07:16;5.50;1.00
14401;DHT22;7285;50.894;5.462;2023-02-20T06:09:43;5.50;99.90
14401;DHT22;7285;50.894;5.462;2023-02-20T06:12:11;5.50;99.90
14401;DHT22;7285;50.894;5.462;2023-02-20T06:14:39;5.50;49.40
14401;DHT22;7285;50.894;5.462;2023-02-20T06:17:06;5.50;1.00
14401;DHT22;7285;50.894;5.462;2023-02-20T06:19:33;5.60;1.00
14401;DHT22;7285;50.894;5.462;2023-02-20T06:22:01;5.60;1.00
14401;DHT22;7285;50.894;5.462;2023-02-20T06:24:28;5.60;1.00
14401;DHT22;7285;50.894;5.462;2023-02-20T06:26:56;5.60;1.00
14401;DHT22;7285;50.894;5.462;2023-02-20T06:29:23;5.60;1.00
14401;DHT22;7285;50.894;5.462;2023-02-20T06:31:50;5.60;1.00
14401;DHT22;7285;50.894;5.462;2023-02-20T06:34:17;5.60;1.00
14401;DHT22;7285;50.894;5.462;2023-02-20T06:36:44;5.60;1.00
14401;DHT22;7285;50.894;5.462;2023-02-20T06:39:13;5.60;1.00
14401;DHT22;7285;50.894;5.462;2023-02-20T06:41:40;5.60;99.90
14401;DHT22;7285;50.894;5.462;2023-02-20T06:44:07;5.60;1.00
14401;DHT22;7285;50.894;5.462;2023-02-20T06:46:34;5.70;1.00
14401;DHT22;7285;50.894;5.462;2023-02-20T06:49:01;5.60;1.00
14401;DHT22;7285;50.894;5.462;2023-02-20T06:51:30;5.70;64.90
14401;DHT22;7285;50.894;5.462;2023-02-20T06:53:57;5.70;1.00
14401;DHT22;7285;50.894;5.462;2023-02-20T06:56:27;5.70;1.00
14401;DHT22;7285;50.894;5.462;2023-02-20T06:58:55;5.70;1.00
14401;DHT22;7285;50.894;5.462;2023-02-20T07:01:25;5.70;1.00
14401;DHT22;7285;50.894;5.462;2023-02-20T07:03:53;5.80;27.30
14401;DHT22;7285;50.894;5.462;2023-02-20T07:06:21;5.80;10.10
14401;DHT22;7285;50.894;5.462;2023-02-20T07:08:48;5.80;1.00
14401;DHT22;7285;50.894;5.462;2023-02-20T07:11:16;5.80;1.00
14401;DHT22;7285;50.894;5.462;2023-02-20T07:13:45;5.90;99.90
14401;DHT22;7285;50.894;5.462;2023-02-20T07:16:12;5.80;99.90
14401;DHT22;7285;50.894;5.462;2023-02-20T07:18:39;5.80;99.90
14401;DHT22;7285;50.894;5.462;2023-02-20T07:21:06;5.90;99.90
14401;DHT22;7285;50.894;5.462;2023-02-20T07:23:33;5.90;1.00
14401;DHT22;7285;50.894;5.462;2023-02-20T07:26:00;5.90;99.90
14401;DHT22;7285;50.894;5.462;2023-02-20T07:28:27;5.90;99.90
14401;DHT22;7285;50.894;5.462;2023-02-20T07:30:55;5.90;99.90
14401;DHT22;7285;50.894;5.462;2023-02-20T07:33:22;5.90;1.00
14401;DHT22;7285;50.894;5.462;2023-02-20T07:35:49;5.90;1.00
14401;DHT22;7285;50.894;5.462;2023-02-20T07:38:16;6.00;1.00
14401;DHT22;7285;50.894;5.462;2023-02-20T07:40:43;6.00;99.90
14401;DHT22;7285;50.894;5.462;2023-02-20T07:43:10;6.00;1.00
14401;DHT22;7285;50.894;5.462;2023-02-20T07:45:37;6.00;1.00
14401;DHT22;7285;50.894;5.462;2023-02-20T07:48:06;6.00;1.00
14401;DHT22;7285;50.894;5.462;2023-02-20T07:50:33;6.10;99.90
14401;DHT22;7285;50.894;5.462;2023-02-20T07:53:00;6.10;99.90
14401;DHT22;7285;50.894;5.462;2023-02-20T07:55:27;6.10;99.90
14401;DHT22;7285;50.894;5.462;2023-02-20T07:57:54;6.10;99.90
14401;DHT22;7285;50.894;5.462;2023-02-20T08:00:23;6.10;99.90
14401;DHT22;7285;50.894;5.462;2023-02-20T08:02:51;6.20;99.90
14401;DHT22;7285;50.894;5.462;2023-02-20T08:05:20;6.20;99.90
14401;DHT22;7285;50.894;5.462;2023-02-20T08:07:47;6.20;1.00
14401;DHT22;7285;50.894;5.462;2023-02-20T08:10:16;6.20;1.00
14401;DHT22;7285;50.894;5.462;2023-02-20T08:12:44;6.30;1.00
14401;DHT22;7285;50.894;5.462;2023-02-20T08:15:11;6.30;99.90
14401;DHT22;7285;50.894;5.462;2023-02-20T08:17:38;6.30;1.00
14401;DHT22;7285;50.894;5.462;2023-02-20T08:20:06;6.30;99.90
14401;DHT22;7285;50.894;5.462;2023-02-20T08:22:35;6.30;1.00
14401;DHT22;7285;50.894;5.462;2023-02-20T08:25:02;6.40;99.90
14401;DHT22;7285;50.894;5.462;2023-02-20T08:27:30;6.40;99.90
14401;DHT22;7285;50.894;5.462;2023-02-20T08:29:57;6.50;1.00
14401;DHT22;7285;50.894;5.462;2023-02-20T08:32:24;6.60;90.70
14401;DHT22;7285;50.894;5.462;2023-02-20T08:34:51;6.60;1.00
14401;DHT22;7285;50.894;5.462;2023-02-20T08:37:18;6.60;1.00
14401;DHT22;7285;50.894;5.462;2023-02-20T08:39:46;6.60;99.90
14401;DHT22;7285;50.894;5.462;2023-02-20T08:42:14;6.70;1.00
14401;DHT22;7285;50.894;5.462;2023-02-20T08:44:42;6.70;99.90
14401;DHT22;7285;50.894;5.462;2023-02-20T08:47:09;6.70;99.90
14401;DHT22;7285;50.894;5.462;2023-02-20T08:49:35;6.80;99.90
14401;DHT22;7285;50.894;5.462;2023-02-20T08:52:03;6.80;1.00
14401;DHT22;7285;50.894;5.462;2023-02-20T08:54:30;6.80;1.00
14401;DHT22;7285;50.894;5.462;2023-02-20T08:56:59;6.90;1.00
14401;DHT22;7285;50.894;5.462;2023-02-20T08:59:26;6.90;1.00
14401;DHT22;7285;50.894;5.462;2023-02-20T09:01:56;6.90;1.00
14401;DHT22;7285;50.894;5.462;2023-02-20T09:04:23;6.90;99.90
14401;DHT22;7285;50.894;5.462;2023-02-20T09:06:50;6.90;99.90
14401;DHT22;7285;50.894;5.462;2023-02-20T09:09:17;6.90;99.90
14401;DHT22;7285;50.894;5.462;2023-02-20T09:11:44;6.90;99.90
14401;DHT22;7285;50.894;5.462;2023-02-20T09:14:12;6.90;59.60
14401;DHT22;7285;50.894;5.462;2023-02-20T09:16:39;7.00;90.60
14401;DHT22;7285;50.894;5.462;2023-02-20T09:19:07;7.00;1.00
14401;DHT22;7285;50.894;5.462;2023-02-20T09:21:33;7.00;99.90
14401;DHT22;7285;50.894;5.462;2023-02-20T09:24:01;7.10;1.00
14401;DHT22;7285;50.894;5.462;2023-02-20T09:26:27;7.20;1.00
14401;DHT22;7285;50.894;5.462;2023-02-20T09:28:54;7.20;1.00
14401;DHT22;7285;50.894;5.462;2023-02-20T09:31:23;7.30;1.00
14401;DHT22;7285;50.894;5.462;2023-02-20T09:33:50;7.30;1.00
14401;DHT22;7285;50.894;5.462;2023-02-20T09:36:17;7.40;1.00
14401;DHT22;7285;50.894;5.462;2023-02-20T09:38:44;7.30;99.90
14401;DHT22;7285;50.894;5.462;2023-02-20T09:41:21;7.50;99.90
14401;DHT22;7285;50.894;5.462;2023-02-20T09:43:58;7.50;99.90
14401;DHT22;7285;50.894;5.462;2023-02-20T09:46:28;7.40;1.00
14401;DHT22;7285;50.894;5.462;2023-02-20T09:49:02;7.40;1.00
14401;DHT22;7285;50.894;5.462;2023-02-20T09:51:32;7.50;1.00
14401;DHT22;7285;50.894;5.462;2023-02-20T09:54:03;7.40;1.00
14401;DHT22;7285;50.894;5.462;2023-02-20T09:56:34;7.40;1.00
14401;DHT22;7285;50.894;5.462;2023-02-20T09:59:05;7.40;1.00
14401;DHT22;7285;50.894;5.462;2023-02-20T10:01:38;7.50;1.00
14401;DHT22;7285;50.894;5.462;2023-02-20T10:04:10;7.50;1.00
14401;DHT22;7285;50.894;5.462;2023-02-20T10:06:39;7.60;1.00
14401;DHT22;7285;50.894;5.462;2023-02-20T10:09:09;7.70;1.00
14401;DHT22;7285;50.894;5.462;2023-02-20T10:12:12;7.70;1.00
14401;DHT22;7285;50.894;5.462;2023-02-20T10:14:53;7.70;1.00
14401;DHT22;7285;50.894;5.462;2023-02-20T10:17:31;7.70;1.00
14401;DHT22;7285;50.894;5.462;2023-02-20T10:20:02;7.70;1.00
14401;DHT22;7285;50.894;5.462;2023-02-20T10:22:38;7.70;1.00
14401;DHT22;7285;50.894;5.462;2023-02-20T10:25:14;7.80;1.00
14401;DHT22;7285;50.894;5.462;2023-02-20T10:27:51;7.90;1.00
14401;DHT22;7285;50.894;5.462;2023-02-20T10:30:24;7.80;1.00
14401;DHT22;7285;50.894;5.462;2023-02-20T10:32:58;7.80;99.90
14401;DHT22;7285;50.894;5.462;2023-02-20T10:35:33;7.90;99.90
14401;DHT22;7285;50.894;5.462;2023-02-20T10:38:05;7.80;99.90
14401;DHT22;7285;50.894;5.462;2023-02-20T10:40:36;7.80;99.90
14401;DHT22;7285;50.894;5.462;2023-02-20T10:43:11;7.90;99.90
14401;DHT22;7285;50.894;5.462;2023-02-20T10:45:50;7.90;99.90
14401;DHT22;7285;50.894;5.462;2023-02-20T10:48:22;7.90;99.90
14401;DHT22;7285;50.894;5.462;2023-02-20T10:50:58;8.00;99.90
14401;DHT22;7285;50.894;5.462;2023-02-20T10:53:34;7.80;99.90
14401;DHT22;7285;50.894;5.462;2023-02-20T10:56:08;7.80;99.90
14401;DHT22;7285;50.894;5.462;2023-02-20T10:58:39;7.90;1.00
14401;DHT22;7285;50.894;5.462;2023-02-20T11:01:09;7.90;99.90
14401;DHT22;7285;50.894;5.462;2023-02-20T11:03:44;8.00;1.00
14401;DHT22;7285;50.894;5.462;2023-02-20T11:06:15;8.00;99.90
14401;DHT22;7285;50.894;5.462;2023-02-20T11:08:43;7.90;99.90
14401;DHT22;7285;50.894;5.462;2023-02-20T11:11:21;8.00;99.90
14401;DHT22;7285;50.894;5.462;2023-02-20T11:13:49;8.00;99.90
14401;DHT22;7285;50.894;5.462;2023-02-20T11:16:22;8.10;99.90
14401;DHT22;7285;50.894;5.462;2023-02-20T11:19:06;8.10;99.90
14401;DHT22;7285;50.894;5.462;2023-02-20T11:21:37;8.10;99.90
14401;DHT22;7285;50.894;5.462;2023-02-20T11:24:28;8.20;99.90
14401;DHT22;7285;50.894;5.462;2023-02-20T11:26:58;8.10;99.90
14401;DHT22;7285;50.894;5.462;2023-02-20T11:29:32;8.10;99.90
14401;DHT22;7285;50.894;5.462;2023-02-20T11:32:22;8.10;99.90
14401;DHT22;7285;50.894;5.462;2023-02-20T11:35:02;8.10;99.90
14401;DHT22;7285;50.894;5.462;2023-02-20T11:37:31;8.10;99.90
14401;DHT22;7285;50.894;5.462;2023-02-20T11:39:58;8.10;99.90
14401;DHT22;7285;50.894;5.462;2023-02-20T11:42:31;8.10;1.00
14401;DHT22;7285;50.894;5.462;2023-02-20T11:45:14;8.10;99.90
14401;DHT22;7285;50.894;5.462;2023-02-20T11:47:42;8.20;99.90
14401;DHT22;7285;50.894;5.462;2023-02-20T11:50:16;8.20;1.00
14401;DHT22;7285;50.894;5.462;2023-02-20T11:52:57;8.20;1.00
14401;DHT22;7285;50.894;5.462;2023-02-20T11:55:26;8.20;1.00
14401;DHT22;7285;50.894;5.462;2023-02-20T11:57:54;8.10;1.00
14401;DHT22;7285;50.894;5.462;2023-02-20T12:00:23;8.10;1.00
14401;DHT22;7285;50.894;5.462;2023-02-20T12:02:53;8.10;1.00
14401;DHT22;7285;50.894;5.462;2023-02-20T12:05:21;8.20;1.00
14401;DHT22;7285;50.894;5.462;2023-02-20T12:08:01;8.10;1.00
14401;DHT22;7285;50.894;5.462;2023-02-20T12:10:36;8.10;1.00
14401;DHT22;7285;50.894;5.462;2023-02-20T12:13:06;8.00;1.00
14401;DHT22;7285;50.894;5.462;2023-02-20T12:15:35;8.10;1.00
14401;DHT22;7285;50.894;5.462;2023-02-20T12:18:38;8.10;1.00
14401;DHT22;7285;50.894;5.462;2023-02-20T12:21:19;8.10;1.00
14401;DHT22;7285;50.894;5.462;2023-02-20T12:24:02;8.10;1.00
14401;DHT22;7285;50.894;5.462;2023-02-20T12:26:39;8.10;1.00
14401;DHT22;7285;50.894;5.462;2023-02-20T12:29:21;8.10;1.00
14401;DHT22;7285;50.894;5.462;2023-02-20T12:32:00;8.20;1.00
14401;DHT22;7285;50.894;5.462;2023-02-20T12:34:47;8.20;1.00
14401;DHT22;7285;50.894;5.462;2023-02-20T12:37:25;8.10;1.00
14401;DHT22;7285;50.894;5.462;2023-02-20T12:40:01;8.20;1.00
14401;DHT22;7285;50.894;5.462;2023-02-20T12:42:40;8.20;1.00
14401;DHT22;7285;50.894;5.462;2023-02-20T12:45:24;8.10;1.00
14401;DHT22;7285;50.894;5.462;2023-02-20T12:48:04;8.30;1.00
14401;DHT22;7285;50.894;5.462;2023-02-20T12:50:41;8.20;1.00
14401;DHT22;7285;50.894;5.462;2023-02-20T12:53:27;8.30;1.00
14401;DHT22;7285;50.894;5.462;2023-02-20T12:56:08;8.40;1.00
14401;DHT22;7285;50.894;5.462;2023-02-20T12:58:45;8.50;1.00
14401;DHT22;7285;50.894;5.462;2023-02-20T13:01:14;8.50;1.00
14401;DHT22;7285;50.894;5.462;2023-02-20T13:03:50;8.50;1.00
14401;DHT22;7285;50.894;5.462;2023-02-20T13:06:24;8.50;1.00
14401;DHT22;7285;50.894;5.462;2023-02-20T13:09:02;8.50;99.90
14401;DHT22;7285;50.894;5.462;2023-02-20T13:11:35;8.50;99.90
14401;DHT22;7285;50.894;5.462;2023-02-20T13:14:16;8.60;1.00
14401;DHT22;7285;50.894;5.462;2023-02-20T13:16:49;8.50;99.90
14401;DHT22;7285;50.894;5.462;2023-02-20T13:19:22;8.50;99.90
14401;DHT22;7285;50.894;5.462;2023-02-20T13:21:53;8.50;99.90
14401;DHT22;7285;50.894;5.462;2023-02-20T13:24:30;8.60;99.90
14401;DHT22;7285;50.894;5.462;2023-02-20T13:26:58;8.60;99.90
14401;DHT22;7285;50.894;5.462;2023-02-20T13:29:32;8.50;97.10
14401;DHT22;7285;50.894;5.462;2023-02-20T13:32:01;8.60;99.90
14401;DHT22;7285;50.894;5.462;2023-02-20T13:34:34;8.60;99.90
14401;DHT22;7285;50.894;5.462;2023-02-20T13:37:03;8.60;99.90
14401;DHT22;7285;50.894;5.462;2023-02-20T13:39:43;8.60;99.90
14401;DHT22;7285;50.894;5.462;2023-02-20T13:42:31;8.70;99.90
14401;DHT22;7285;50.894;5.462;2023-02-20T13:44:58;8.70;99.90
14401;DHT22;7285;50.894;5.462;2023-02-20T13:47:34;8.70;99.90
14401;DHT22;7285;50.894;5.462;2023-02-20T13:50:31;8.70;99.90
14401;DHT22;7285;50.894;5.462;2023-02-20T13:53:03;8.80;99.90
14401;DHT22;7285;50.894;5.462;2023-02-20T13:55:32;8.70;56.90
14401;DHT22;7285;50.894;5.462;2023-02-20T13:58:13;8.80;99.90
14401;DHT22;7285;50.894;5.462;2023-02-20T14:00:46;8.80;18.80
14401;DHT22;7285;50.894;5.462;2023-02-20T14:03:17;8.70;1.00
14401;DHT22;7285;50.894;5.462;2023-02-20T14:05:45;8.70;1.00
14401;DHT22;7285;50.894;5.462;2023-02-20T14:08:16;8.80;99.90
14401;DHT22;7285;50.894;5.462;2023-02-20T14:10:45;8.70;98.60
14401;DHT22;7285;50.894;5.462;2023-02-20T14:13:17;8.80;99.90
14401;DHT22;7285;50.894;5.462;2023-02-20T14:15:46;8.80;71.20
14401;DHT22;7285;50.894;5.462;2023-02-20T14:18:16;8.80;29.90
14401;DHT22;7285;50.894;5.462;2023-02-20T14:20:44;8.80;53.40
14401;DHT22;7285;50.894;5.462;2023-02-20T14:23:20;8.80;99.90
14401;DHT22;7285;50.894;5.462;2023-02-20T14:25:57;8.80;99.90
14401;DHT22;7285;50.894;5.462;2023-02-20T14:28:25;8.90;99.90
14401;DHT22;7285;50.894;5.462;2023-02-20T14:31:12;8.90;99.90
14401;DHT22;7285;50.894;5.462;2023-02-20T14:33:43;8.80;99.90
14401;DHT22;7285;50.894;5.462;2023-02-20T14:36:39;8.80;99.90
14401;DHT22;7285;50.894;5.462;2023-02-20T14:39:21;8.80;99.90
14401;DHT22;7285;50.894;5.462;2023-02-20T14:41:53;8.80;99.90
14401;DHT22;7285;50.894;5.462;2023-02-20T14:44:21;8.80;99.90
14401;DHT22;7285;50.894;5.462;2023-02-20T14:46:51;8.80;99.90
14401;DHT22;7285;50.894;5.462;2023-02-20T14:49:23;8.80;99.90
14401;DHT22;7285;50.894;5.462;2023-02-20T14:51:50;8.80;99.90
14401;DHT22;7285;50.894;5.462;2023-02-20T14:54:18;8.80;99.90
14401;DHT22;7285;50.894;5.462;2023-02-20T14:56:46;8.90;99.90
14401;DHT22;7285;50.894;5.462;2023-02-20T14:59:30;8.90;99.90
14401;DHT22;7285;50.894;5.462;2023-02-20T15:02:00;8.90;99.90
14401;DHT22;7285;50.894;5.462;2023-02-20T15:04:27;8.90;99.90
14401;DHT22;7285;50.894;5.462;2023-02-20T15:07:01;8.90;99.90
14401;DHT22;7285;50.894;5.462;2023-02-20T15:09:35;8.90;99.90
14401;DHT22;7285;50.894;5.462;2023-02-20T15:12:04;9.00;99.90
14401;DHT22;7285;50.894;5.462;2023-02-20T15:14:40;8.90;99.90
14401;DHT22;7285;50.894;5.462;2023-02-20T15:17:19;8.90;99.90
14401;DHT22;7285;50.894;5.462;2023-02-20T15:19:47;8.90;99.90
14401;DHT22;7285;50.894;5.462;2023-02-20T15:22:26;8.90;99.90
14401;DHT22;7285;50.894;5.462;2023-02-20T15:24:54;8.90;1.00
14401;DHT22;7285;50.894;5.462;2023-02-20T15:27:36;8.80;99.90
14401;DHT22;7285;50.894;5.462;2023-02-20T15:30:11;8.80;1.00
14401;DHT22;7285;50.894;5.462;2023-02-20T15:32:40;8.90;1.00
14401;DHT22;7285;50.894;5.462;2023-02-20T15:35:15;8.80;1.00
14401;DHT22;7285;50.894;5.462;2023-02-20T15:37:43;8.80;1.00
14401;DHT22;7285;50.894;5.462;2023-02-20T15:40:18;8.80;1.00
14401;DHT22;7285;50.894;5.462;2023-02-20T15:42:46;8.80;1.00
14401;DHT22;7285;50.894;5.462;2023-02-20T15:45:16;8.80;1.00
14401;DHT22;7285;50.894;5.462;2023-02-20T15:47:43;8.80;1.00
14401;DHT22;7285;50.894;5.462;2023-02-20T15:50:09;8.80;1.00
14401;DHT22;7285;50.894;5.462;2023-02-20T15:52:36;8.80;1.00
14401;DHT22;7285;50.894;5.462;2023-02-20T15:55:04;8.80;1.00
14401;DHT22;7285;50.894;5.462;2023-02-20T15:57:31;8.80;1.00
14401;DHT22;7285;50.894;5.462;2023-02-20T15:59:58;8.70;1.00
14401;DHT22;7285;50.894;5.462;2023-02-20T16:02:27;8.70;1.00
14401;DHT22;7285;50.894;5.462;2023-02-20T16:04:54;8.70;1.00
14401;DHT22;7285;50.894;5.462;2023-02-20T16:07:20;8.70;1.00
14401;DHT22;7285;50.894;5.462;2023-02-20T16:09:47;8.70;1.00
14401;DHT22;7285;50.894;5.462;2023-02-20T16:12:17;8.70;1.00
14401;DHT22;7285;50.894;5.462;2023-02-20T16:14:45;8.70;1.00
14401;DHT22;7285;50.894;5.462;2023-02-20T16:17:17;8.70;34.40
14401;DHT22;7285;50.894;5.462;2023-02-20T16:19:47;8.60;1.00
14401;DHT22;7285;50.894;5.462;2023-02-20T16:22:14;8.60;25.10
14401;DHT22;7285;50.894;5.462;2023-02-20T16:24:41;8.60;1.00
14401;DHT22;7285;50.894;5.462;2023-02-20T16:27:14;8.60;1.00
14401;DHT22;7285;50.894;5.462;2023-02-20T16:29:43;8.60;1.00
14401;DHT22;7285;50.894;5.462;2023-02-20T16:32:21;8.60;1.00
14401;DHT22;7285;50.894;5.462;2023-02-20T16:34:50;8.60;1.00
14401;DHT22;7285;50.894;5.462;2023-02-20T16:37:18;8.60;99.90
14401;DHT22;7285;50.894;5.462;2023-02-20T16:39:45;8.50;99.90
14401;DHT22;7285;50.894;5.462;2023-02-20T16:42:29;8.50;99.90
14401;DHT22;7285;50.894;5.462;2023-02-20T16:44:58;8.50;99.90
14401;DHT22;7285;50.894;5.462;2023-02-20T16:47:28;8.50;1.00